Time;durP1;ratioP1;P1;durP2;ratioP2;P2;SDS_P1;SDS_P2;PMS_P1;PMS_P2;Temp;Humidity;BMP_temperature;BMP_pressure;BME280_temperature;BME280_humidity;BME280_pressure;Samples;Min_cycle;Max_cycle;Signal;HPM_P1;HPM_P2
2024/02/02 00:02:03;;;;;;;14.13;12.73;;;5.50;52.00;;;;;;4992092;28;20176;-69
2024/02/02 00:04:28;;;;;;;12.93;11.50;;;5.50;50.50;;;;;;4992156;28;20180;-70
2024/02/02 00:06:54;;;;;;;13.87;11.87;;;5.50;50.30;;;;;;4991951;28;20508;-70
2024/02/02 00:09:19;;;;;;;17.13;14.10;;;5.60;51.30;;;;;;4991674;28;20243;-69
2024/02/02 00:11:46;;;;;;;16.53;12.17;;;5.60;51.20;;;;;;4991649;28;20678;-69
2024/02/02 00:14:11;;;;;;;14.40;12.53;;;5.60;49.70;;;;;;4991695;28;20318;-68
2024/02/02 00:16:37;;;;;;;15.13;12.00;;;5.60;51.40;;;;;;4990217;28;20466;-70
2024/02/02 00:19:02;;;;;;;12.87;11.60;;;5.60;50.40;;;;;;4991483;28;20222;-69
2024/02/02 00:21:28;;;;;;;17.10;12.67;;;5.60;50.70;;;;;;4990524;28;20712;-69
2024/02/02 00:23:54;;;;;;;13.53;11.97;;;5.60;50.40;;;;;;4991765;28;20165;-68
2024/02/02 00:26:19;;;;;;;13.23;10.17;;;5.60;49.50;;;;;;4991305;28;20427;-70
2024/02/02 00:28:45;;;;;;;13.70;9.93;;;5.60;48.70;;;;;;4991443;28;20287;-69
2024/02/02 00:31:11;;;;;;;12.20;9.60;;;5.50;48.60;;;;;;4991460;28;20208;-70
2024/02/02 00:33:36;;;;;;;13.90;11.37;;;5.50;47.90;;;;;;4991443;28;20258;-70
2024/02/02 00:36:03;;;;;;;16.03;11.03;;;5.40;46.80;;;;;;4989606;28;20432;-69
2024/02/02 00:38:29;;;;;;;16.60;12.40;;;5.30;45.90;;;;;;4991381;28;20200;-68
2024/02/02 00:40:54;;;;;;;12.13;9.70;;;5.30;46.20;;;;;;4991264;28;20855;-71
2024/02/02 00:43:20;;;;;;;11.90;9.87;;;5.30;48.10;;;;;;4991345;28;20594;-70
2024/02/02 00:45:46;;;;;;;11.07;9.77;;;5.30;47.10;;;;;;4991006;28;20177;-69
2024/02/02 00:48:11;;;;;;;15.13;10.30;;;5.20;46.20;;;;;;4991270;28;20177;-68
2024/02/02 00:50:37;;;;;;;11.10;9.77;;;5.20;47.50;;;;;;4994179;28;20201;-68
2024/02/02 00:53:02;;;;;;;14.40;11.33;;;5.30;46.90;;;;;;4994800;28;20181;-69
2024/02/02 00:55:28;;;;;;;11.80;9.13;;;5.20;46.90;;;;;;4994485;28;20181;-69
2024/02/02 00:57:54;;;;;;;11.60;9.20;;;5.20;46.70;;;;;;4994694;28;20184;-68
2024/02/02 01:00:19;;;;;;;13.53;9.50;;;5.10;45.70;;;;;;4994386;28;20217;-68
2024/02/02 01:02:45;;;;;;;14.60;10.60;;;5.10;45.80;;;;;;4994446;28;20451;-68
2024/02/02 01:05:10;;;;;;;16.97;10.57;;;5.10;46.50;;;;;;4994597;28;20181;-69
2024/02/02 01:07:36;;;;;;;11.47;9.73;;;5.10;47.10;;;;;;4994247;28;20644;-68
2024/02/02 01:10:04;;;;;;;13.00;11.17;;;5.10;46.30;;;;;;4994574;28;20488;-68
2024/02/02 01:12:29;;;;;;;11.70;8.97;;;5.10;46.80;;;;;;4993198;28;20191;-68
2024/02/02 01:14:55;;;;;;;10.40;8.50;;;5.10;46.30;;;;;;4994099;28;20539;-70
2024/02/02 01:17:21;;;;;;;12.20;9.37;;;5.00;45.50;;;;;;4993923;28;20656;-70
2024/02/02 01:19:46;;;;;;;10.93;8.90;;;5.10;45.10;;;;;;4994146;28;20649;-70
2024/02/02 01:22:12;;;;;;;11.43;9.87;;;5.00;45.00;;;;;;4994245;28;20506;-70
2024/02/02 01:24:37;;;;;;;11.20;7.87;;;5.00;44.90;;;;;;4994221;28;20188;-69
2024/02/02 01:27:04;;;;;;;8.67;6.87;;;5.00;45.40;;;;;;4994077;28;20181;-70
2024/02/02 01:29:30;;;;;;;11.90;8.50;;;5.00;46.00;;;;;;4994349;28;20292;-69
2024/02/02 01:31:55;;;;;;;9.10;7.17;;;5.00;44.10;;;;;;4993937;28;20435;-69
2024/02/02 01:34:22;;;;;;;9.53;8.43;;;4.90;42.00;;;;;;4994228;28;20692;-70
2024/02/02 01:36:48;;;;;;;11.80;7.27;;;4.90;42.30;;;;;;4993713;28;20188;-69
2024/02/02 01:39:13;;;;;;;10.50;8.30;;;4.90;43.10;;;;;;4993572;28;20467;-69
2024/02/02 01:41:39;;;;;;;11.50;6.67;;;4.80;42.20;;;;;;4994079;28;20192;-68
2024/02/02 01:44:05;;;;;;;10.30;6.90;;;4.80;43.00;;;;;;4993776;28;20189;-68
2024/02/02 01:46:31;;;;;;;9.83;6.73;;;4.70;42.90;;;;;;4993523;28;20173;-69
2024/02/02 01:48:57;;;;;;;9.20;7.00;;;4.70;42.20;;;;;;4993536;28;20478;-69
2024/02/02 01:51:23;;;;;;;7.60;6.40;;;4.60;41.70;;;;;;4993617;28;20416;-69
2024/02/02 01:53:49;;;;;;;8.90;7.73;;;4.50;42.00;;;;;;4993605;28;20442;-69
2024/02/02 01:56:15;;;;;;;12.73;7.20;;;4.40;42.70;;;;;;4993332;28;20427;-69
2024/02/02 01:58:41;;;;;;;8.97;7.70;;;4.30;42.60;;;;;;4993369;28;20468;-69
2024/02/02 02:01:07;;;;;;;10.93;7.90;;;4.30;44.80;;;;;;4991989;28;20235;-69
2024/02/02 02:03:32;;;;;;;10.20;8.87;;;4.40;44.90;;;;;;4993325;28;20181;-69
2024/02/02 02:06:00;;;;;;;12.70;6.90;;;4.40;46.30;;;;;;4991841;28;20183;-69
2024/02/02 02:08:25;;;;;;;11.07;7.73;;;4.40;46.80;;;;;;4993257;28;20423;-69
2024/02/02 02:10:51;;;;;;;14.53;9.03;;;4.40;46.70;;;;;;4993012;28;20807;-69
2024/02/02 02:13:17;;;;;;;9.50;8.23;;;4.40;46.80;;;;;;4993225;28;20202;-69
2024/02/02 02:15:43;;;;;;;10.50;7.50;;;4.30;46.10;;;;;;4993159;28;20616;-69
2024/02/02 02:18:08;;;;;;;12.13;7.93;;;4.30;47.60;;;;;;4992893;28;20422;-69
2024/02/02 02:20:34;;;;;;;11.57;8.50;;;4.40;47.70;;;;;;4992940;28;20337;-68
2024/02/02 02:23:00;;;;;;;9.50;7.50;;;4.40;47.70;;;;;;4992891;28;20172;-68
2024/02/02 02:25:26;;;;;;;10.33;8.97;;;4.40;47.70;;;;;;4992893;28;20168;-69
2024/02/02 02:27:52;;;;;;;9.93;7.97;;;4.40;47.70;;;;;;4992738;28;20426;-68
2024/02/02 02:30:18;;;;;;;15.53;9.37;;;4.40;47.70;;;;;;4991335;28;20200;-69
2024/02/02 02:32:44;;;;;;;12.87;10.43;;;4.50;47.80;;;;;;4992814;28;20180;-68
2024/02/02 02:35:09;;;;;;;14.00;10.53;;;4.40;47.70;;;;;;4992805;28;20439;-69
2024/02/02 02:37:35;;;;;;;13.60;9.20;;;4.40;46.60;;;;;;4992521;28;20689;-69
2024/02/02 02:40:01;;;;;;;20.40;10.40;;;4.40;46.90;;;;;;4991202;28;20269;-69
2024/02/02 02:42:27;;;;;;;14.80;11.93;;;4.40;47.40;;;;;;4992670;28;20421;-68
2024/02/02 02:44:52;;;;;;;16.30;12.33;;;4.40;47.00;;;;;;4992647;28;20203;-69
2024/02/02 02:47:19;;;;;;;15.60;10.97;;;4.40;47.70;;;;;;4992307;28;20176;-69
2024/02/02 02:49:44;;;;;;;13.40;9.83;;;4.40;47.70;;;;;;4992364;28;20200;-69
2024/02/02 02:52:10;;;;;;;13.80;9.63;;;4.40;48.40;;;;;;4992358;28;20421;-69
2024/02/02 02:54:35;;;;;;;13.43;10.13;;;4.40;47.70;;;;;;4992413;28;20271;-69
2024/02/02 02:57:01;;;;;;;14.60;10.17;;;4.40;47.70;;;;;;4992345;28;20180;-69
2024/02/02 02:59:28;;;;;;;10.73;9.13;;;4.30;47.60;;;;;;4992211;28;20264;-69
2024/02/02 03:01:54;;;;;;;17.27;9.77;;;4.40;49.00;;;;;;4992321;28;20216;-69
2024/02/02 03:04:20;;;;;;;16.17;11.30;;;4.40;47.70;;;;;;4992382;28;20423;-69
2024/02/02 03:06:45;;;;;;;12.07;10.13;;;4.40;47.70;;;;;;4992198;28;20419;-69
2024/02/02 03:09:11;;;;;;;10.70;8.60;;;4.30;47.60;;;;;;4991911;28;20180;-69
2024/02/02 03:11:37;;;;;;;15.53;10.33;;;4.20;48.20;;;;;;4992342;28;20179;-69
2024/02/02 03:14:03;;;;;;;12.60;9.50;;;4.20;49.00;;;;;;4992628;28;20899;-68
2024/02/02 03:16:28;;;;;;;13.43;9.70;;;4.20;47.50;;;;;;4991934;28;20418;-68
2024/02/02 03:18:54;;;;;;;13.87;10.70;;;4.20;48.80;;;;;;4991981;28;20192;-69
2024/02/02 03:21:19;;;;;;;11.70;9.97;;;4.20;48.70;;;;;;4990598;28;20205;-69
2024/02/02 03:23:45;;;;;;;11.07;8.60;;;4.20;49.10;;;;;;4990685;28;20366;-69
2024/02/02 03:26:10;;;;;;;13.47;9.30;;;4.30;49.30;;;;;;4991789;28;20255;-69
2024/02/02 03:28:36;;;;;;;13.23;9.67;;;4.40;48.20;;;;;;4992020;28;20184;-69
2024/02/02 03:31:02;;;;;;;13.40;8.83;;;4.40;47.50;;;;;;4991709;28;20624;-69
2024/02/02 03:33:27;;;;;;;12.43;9.53;;;4.50;47.30;;;;;;4992060;28;20361;-69
2024/02/02 03:35:53;;;;;;;12.10;9.77;;;4.50;46.50;;;;;;4991877;28;20215;-69
2024/02/02 03:38:18;;;;;;;13.47;9.70;;;4.60;45.00;;;;;;4991735;28;20180;-69
2024/02/02 03:40:44;;;;;;;9.53;7.97;;;4.60;45.00;;;;;;4991769;28;20283;-69
2024/02/02 03:43:12;;;;;;;15.40;10.07;;;4.60;46.30;;;;;;4991911;28;20177;-69
2024/02/02 03:45:38;;;;;;;14.47;10.10;;;4.70;44.50;;;;;;4991613;28;20605;-69
2024/02/02 03:48:04;;;;;;;14.70;9.37;;;4.70;44.50;;;;;;4991861;28;20506;-68
2024/02/02 03:50:29;;;;;;;11.80;8.13;;;4.80;44.40;;;;;;4991684;28;20202;-68
2024/02/02 03:52:55;;;;;;;11.40;9.27;;;4.80;42.10;;;;;;4991881;28;20180;-69
2024/02/02 03:55:21;;;;;;;10.80;8.67;;;4.80;42.70;;;;;;4991918;28;20187;-69
2024/02/02 03:57:46;;;;;;;10.43;8.30;;;4.70;43.20;;;;;;4991726;28;20513;-69
2024/02/02 04:00:13;;;;;;;14.13;10.43;;;4.80;41.30;;;;;;4991743;28;20209;-69
2024/02/02 04:02:38;;;;;;;12.83;8.97;;;4.80;40.60;;;;;;4992089;28;20603;-69
2024/02/02 04:05:05;;;;;;;10.40;7.93;;;4.80;41.90;;;;;;4992045;28;20444;-69
2024/02/02 04:07:31;;;;;;;12.47;8.87;;;4.80;39.70;;;;;;4991774;28;20679;-69
2024/02/02 04:09:56;;;;;;;12.80;10.07;;;4.80;41.20;;;;;;4991608;28;20459;-68
2024/02/02 04:12:22;;;;;;;11.40;8.80;;;4.70;40.70;;;;;;4991513;28;20192;-68
2024/02/02 04:14:47;;;;;;;9.47;7.20;;;4.70;42.20;;;;;;4991498;28;20181;-68
2024/02/02 04:17:13;;;;;;;12.40;8.30;;;4.80;41.10;;;;;;4991421;28;20192;-69
2024/02/02 04:19:38;;;;;;;10.30;8.40;;;4.70;41.70;;;;;;4991443;28;20216;-68
2024/02/02 04:22:04;;;;;;;11.50;8.70;;;4.70;41.60;;;;;;4991270;28;20184;-68
2024/02/02 04:24:29;;;;;;;11.33;7.90;;;4.70;42.90;;;;;;4993011;28;20199;-69
2024/02/02 04:26:55;;;;;;;11.60;8.67;;;4.70;43.20;;;;;;4995019;28;20172;-69
2024/02/02 04:29:20;;;;;;;11.23;7.70;;;4.80;43.00;;;;;;4995056;28;20205;-69
2024/02/02 04:31:46;;;;;;;11.47;8.53;;;4.80;43.60;;;;;;4995261;28;20179;-69
2024/02/02 04:34:11;;;;;;;13.50;8.50;;;4.90;43.50;;;;;;4993641;28;20198;-68
2024/02/02 04:36:37;;;;;;;13.80;8.30;;;4.90;43.10;;;;;;4993489;28;20229;-69
2024/02/02 04:39:04;;;;;;;9.67;7.60;;;5.00;42.90;;;;;;4994710;28;20624;-69
2024/02/02 04:41:30;;;;;;;8.80;7.27;;;5.00;43.00;;;;;;4994867;28;20408;-69
2024/02/02 04:43:55;;;;;;;10.83;8.27;;;5.00;41.90;;;;;;4994965;28;20826;-69
2024/02/02 04:46:21;;;;;;;15.33;7.37;;;5.10;42.00;;;;;;4994632;28;20663;-69
2024/02/02 04:48:46;;;;;;;9.23;7.83;;;5.10;41.70;;;;;;4994911;28;20285;-69
2024/02/02 04:51:12;;;;;;;10.70;8.40;;;5.10;41.20;;;;;;4994972;28;20295;-69
2024/02/02 04:53:37;;;;;;;12.33;8.10;;;5.20;41.30;;;;;;4994957;28;20226;-69
2024/02/02 04:56:03;;;;;;;9.60;6.40;;;5.20;39.60;;;;;;4994427;28;20198;-69
2024/02/02 04:58:30;;;;;;;10.20;7.00;;;5.20;39.60;;;;;;4993304;28;20219;-69
2024/02/02 05:00:55;;;;;;;9.63;6.30;;;5.30;40.40;;;;;;4994745;28;20676;-69
2024/02/02 05:03:21;;;;;;;9.20;7.00;;;5.30;39.90;;;;;;4993328;28;20422;-69
2024/02/02 05:05:46;;;;;;;9.10;6.20;;;5.40;39.70;;;;;;4994706;28;20187;-69
2024/02/02 05:08:12;;;;;;;7.53;5.63;;;5.40;39.20;;;;;;4994436;28;20679;-69
2024/02/02 05:10:37;;;;;;;6.80;6.03;;;5.40;38.40;;;;;;4994145;28;20204;-69
2024/02/02 05:13:03;;;;;;;13.50;7.37;;;5.30;38.80;;;;;;4994473;28;20208;-69
2024/02/02 05:15:29;;;;;;;12.73;6.70;;;5.30;38.30;;;;;;4994489;28;20656;-69
2024/02/02 05:17:54;;;;;;;10.50;5.43;;;5.30;38.90;;;;;;4994285;28;20172;-69
2024/02/02 05:20:20;;;;;;;8.87;6.17;;;5.30;39.50;;;;;;4994301;28;20303;-70
2024/02/02 05:22:45;;;;;;;9.13;6.87;;;5.30;38.30;;;;;;4993188;28;20670;-69
2024/02/02 05:25:11;;;;;;;10.40;7.23;;;5.30;39.30;;;;;;4992975;28;20203;-69
2024/02/02 05:27:37;;;;;;;9.63;6.10;;;5.20;38.30;;;;;;4993030;28;20188;-69
2024/02/02 05:30:04;;;;;;;9.00;6.00;;;5.30;39.70;;;;;;4994064;28;20442;-69
2024/02/02 05:32:30;;;;;;;8.10;5.57;;;5.30;39.30;;;;;;4994226;28;20420;-69
2024/02/02 05:34:56;;;;;;;8.97;6.30;;;5.30;40.40;;;;;;4994054;28;20520;-69
2024/02/02 05:37:21;;;;;;;12.33;7.53;;;5.20;42.80;;;;;;4994119;28;20180;-70
2024/02/02 05:39:47;;;;;;;9.67;6.70;;;5.30;42.40;;;;;;4993964;28;20223;-69
2024/02/02 05:42:13;;;;;;;9.77;5.80;;;5.30;41.80;;;;;;4994130;28;20188;-69
2024/02/02 05:44:40;;;;;;;7.60;5.20;;;5.30;41.40;;;;;;4993789;28;20173;-69
2024/02/02 05:47:06;;;;;;;7.50;5.60;;;5.30;42.00;;;;;;4993589;28;20763;-69
2024/02/02 05:49:31;;;;;;;6.57;5.30;;;5.40;40.80;;;;;;4993597;28;20443;-69
2024/02/02 05:51:59;;;;;;;7.07;5.93;;;5.40;41.30;;;;;;4993813;28;20188;-69
2024/02/02 05:54:24;;;;;;;6.80;5.77;;;5.50;39.60;;;;;;4993644;28;20275;-69
2024/02/02 05:56:50;;;;;;;8.73;5.07;;;5.40;40.60;;;;;;4993649;28;20435;-69
2024/02/02 05:59:15;;;;;;;13.27;7.23;;;5.50;41.80;;;;;;4993400;28;20667;-69
2024/02/02 06:01:41;;;;;;;6.80;5.20;;;5.50;39.00;;;;;;4993446;28;20261;-70
2024/02/02 06:04:06;;;;;;;9.13;5.80;;;5.60;38.60;;;;;;4992328;28;20181;-70
2024/02/02 06:06:32;;;;;;;10.47;6.83;;;5.60;38.70;;;;;;4993310;28;20231;-69
2024/02/02 06:08:58;;;;;;;10.33;6.53;;;5.60;38.60;;;;;;4993311;28;20503;-70
2024/02/02 06:11:23;;;;;;;10.20;6.87;;;5.60;38.60;;;;;;4993326;28;20600;-68
2024/02/02 06:13:54;;;;;;;8.63;6.37;;;5.70;35.90;;;;;;4993304;28;20564;-68
2024/02/02 06:16:20;;;;;;;10.80;7.50;;;5.70;37.00;;;;;;4993326;28;20184;-68
2024/02/02 06:18:46;;;;;;;6.93;5.93;;;5.70;35.00;;;;;;4993262;28;20460;-70
2024/02/02 06:21:11;;;;;;;7.87;6.70;;;5.70;35.70;;;;;;4992874;28;20435;-69
2024/02/02 06:23:37;;;;;;;8.70;6.57;;;5.80;35.10;;;;;;4993393;28;20176;-69
2024/02/02 06:26:02;;;;;;;7.07;5.30;;;5.80;33.00;;;;;;4993018;28;20208;-69
2024/02/02 06:28:28;;;;;;;13.50;6.20;;;5.80;33.70;;;;;;4993181;28;20185;-69
2024/02/02 06:30:53;;;;;;;11.87;6.40;;;5.90;33.70;;;;;;4993075;28;20205;-69
2024/02/02 06:33:19;;;;;;;8.37;5.53;;;6.00;32.50;;;;;;4993300;28;20645;-69
2024/02/02 06:35:44;;;;;;;7.80;6.17;;;6.10;31.00;;;;;;4992851;28;20231;-69
2024/02/02 06:38:13;;;;;;;6.90;5.63;;;6.10;30.00;;;;;;4993387;28;20536;-69
2024/02/02 06:40:39;;;;;;;9.17;6.00;;;6.20;29.90;;;;;;4992831;28;20231;-68
2024/02/02 06:43:04;;;;;;;10.20;5.33;;;6.20;29.10;;;;;;4991384;28;20615;-70
2024/02/02 06:45:30;;;;;;;7.40;5.07;;;6.20;28.40;;;;;;4992691;28;20326;-69
2024/02/02 06:47:56;;;;;;;7.33;5.80;;;6.20;29.10;;;;;;4992055;28;20259;-70
2024/02/02 06:50:22;;;;;;;8.03;6.20;;;6.30;29.30;;;;;;4992448;28;20432;-70
2024/02/02 06:52:47;;;;;;;7.37;4.97;;;6.30;28.60;;;;;;4992559;28;20613;-70
2024/02/02 06:55:14;;;;;;;9.43;6.30;;;6.30;28.50;;;;;;4992531;28;20255;-70
2024/02/02 06:57:40;;;;;;;8.00;5.53;;;6.40;28.60;;;;;;4992222;28;20265;-69
2024/02/02 07:00:11;;;;;;;7.83;6.07;;;6.40;28.20;;;;;;4992415;28;20522;-69
2024/02/02 07:02:37;;;;;;;6.07;4.57;;;6.40;28.10;;;;;;4991283;28;20451;-69
2024/02/02 07:05:03;;;;;;;7.00;5.43;;;6.50;27.20;;;;;;4992526;28;20941;-69
2024/02/02 07:07:29;;;;;;;8.67;6.20;;;6.50;28.00;;;;;;4991998;28;20423;-69
2024/02/02 07:09:56;;;;;;;8.93;6.73;;;6.50;27.40;;;;;;4992208;28;20299;-70
2024/02/02 07:12:56;;;;;;;6.80;5.50;;;6.60;26.60;;;;;;4991978;28;20484;-70
2024/02/02 07:15:25;;;;;;;9.87;6.70;;;6.70;26.80;;;;;;4992115;28;20420;-70
2024/02/02 07:17:52;;;;;;;12.57;7.53;;;6.70;25.50;;;;;;4990805;28;20428;-70
2024/02/02 07:20:24;;;;;;;9.83;5.70;;;6.80;24.90;;;;;;4991985;28;20498;-70
2024/02/02 07:22:51;;;;;;;8.30;5.70;;;6.70;25.70;;;;;;4992207;28;20427;-70
2024/02/02 07:25:21;;;;;;;10.27;5.27;;;6.80;25.30;;;;;;4992344;28;20408;-69
2024/02/02 07:28:07;;;;;;;7.50;5.70;;;6.80;24.80;;;;;;4991706;28;20416;-69
2024/02/02 07:30:54;;;;;;;6.00;5.10;;;6.80;23.50;;;;;;4991913;28;20806;-69
2024/02/02 07:33:32;;;;;;;7.70;5.77;;;6.80;24.30;;;;;;4991992;28;20417;-69
2024/02/02 07:35:59;;;;;;;8.27;5.53;;;7.00;23.80;;;;;;4991873;28;20451;-70
2024/02/02 07:38:39;;;;;;;5.30;4.00;;;6.90;23.60;;;;;;4991937;28;20495;-69
2024/02/02 07:41:07;;;;;;;6.80;4.57;;;7.00;22.90;;;;;;4990422;28;20440;-69
2024/02/02 07:43:33;;;;;;;6.27;4.83;;;7.00;22.30;;;;;;4991825;28;20811;-70
2024/02/02 07:46:03;;;;;;;7.33;4.97;;;7.00;22.70;;;;;;4992043;28;20912;-70
2024/02/02 07:48:29;;;;;;;7.20;4.40;;;7.00;23.80;;;;;;4991932;28;20411;-71
2024/02/02 07:50:54;;;;;;;6.50;4.63;;;7.10;22.10;;;;;;4991709;28;20476;-72
2024/02/02 07:53:20;;;;;;;6.63;4.80;;;7.10;22.20;;;;;;4991480;28;20454;-70
2024/02/02 07:55:45;;;;;;;4.70;3.60;;;7.20;22.70;;;;;;4991570;28;20173;-70
2024/02/02 07:58:11;;;;;;;5.10;4.00;;;7.30;21.60;;;;;;4992727;28;20178;-70
2024/02/02 08:00:36;;;;;;;5.27;3.80;;;7.30;20.20;;;;;;4995188;28;20213;-70
2024/02/02 08:03:02;;;;;;;4.10;3.20;;;7.30;19.20;;;;;;4995409;28;20220;-70
2024/02/02 08:05:28;;;;;;;5.00;3.80;;;7.40;18.40;;;;;;4995578;28;20542;-70
2024/02/02 08:07:54;;;;;;;5.93;4.03;;;7.40;18.50;;;;;;4995457;28;20185;-70
2024/02/02 08:10:19;;;;;;;5.70;3.40;;;7.50;18.60;;;;;;4995351;28;20222;-71
2024/02/02 08:12:45;;;;;;;6.40;4.80;;;7.60;18.50;;;;;;4995333;28;20430;-70
2024/02/02 08:15:10;;;;;;;5.83;3.60;;;7.70;17.60;;;;;;4995494;28;20284;-72
2024/02/02 08:17:36;;;;;;;4.00;3.10;;;7.70;16.30;;;;;;4994985;28;20191;-69
2024/02/02 08:20:01;;;;;;;4.40;3.07;;;7.70;17.40;;;;;;4995142;28;20219;-69
2024/02/02 08:22:27;;;;;;;4.80;3.70;;;7.90;16.70;;;;;;4995043;28;20181;-69
2024/02/02 08:24:52;;;;;;;4.90;3.40;;;7.90;15.30;;;;;;4994833;28;20179;-69
2024/02/02 08:27:21;;;;;;;4.13;3.17;;;7.90;14.60;;;;;;4994778;28;20175;-70
2024/02/02 08:29:48;;;;;;;4.40;3.13;;;7.90;14.10;;;;;;4994818;28;20571;-68
2024/02/02 08:32:14;;;;;;;6.10;2.77;;;7.90;13.50;;;;;;4993519;28;20434;-68
2024/02/02 08:34:39;;;;;;;5.43;3.70;;;7.90;12.90;;;;;;4994903;28;20413;-69
2024/02/02 08:37:05;;;;;;;3.97;2.97;;;8.00;14.00;;;;;;4994643;28;20192;-69
2024/02/02 08:39:34;;;;;;;4.53;3.53;;;8.10;13.00;;;;;;4994384;28;20223;-70
2024/02/02 08:42:01;;;;;;;5.20;2.97;;;8.20;12.90;;;;;;4994805;28;20431;-71
2024/02/02 08:44:30;;;;;;;5.57;3.77;;;8.20;11.80;;;;;;4994739;28;20509;-70
2024/02/02 08:46:57;;;;;;;7.07;3.77;;;8.10;12.00;;;;;;4994640;28;20419;-71
2024/02/02 08:49:59;;;;;;;4.87;2.60;;;8.30;12.30;;;;;;4994516;28;20606;-70
2024/02/02 08:52:32;;;;;;;5.57;3.23;;;8.10;11.30;;;;;;4994665;28;20422;-70
2024/02/02 08:55:04;;;;;;;4.33;3.27;;;8.10;11.50;;;;;;4994736;28;20410;-68
2024/02/02 08:57:31;;;;;;;4.50;2.97;;;8.10;11.20;;;;;;4994658;28;20415;-69
2024/02/02 09:00:04;;;;;;;3.90;2.60;;;8.30;11.30;;;;;;4994298;28;20473;-69
2024/02/02 09:02:55;;;;;;;3.73;2.43;;;8.40;10.00;;;;;;4993550;28;20966;-69
2024/02/02 09:05:23;;;;;;;3.20;2.47;;;8.40;8.90;;;;;;4994819;28;20769;-69
2024/02/02 09:08:12;;;;;;;4.83;3.33;;;8.40;9.40;;;;;;4994142;28;20412;-69
2024/02/02 09:10:40;;;;;;;4.30;3.03;;;8.40;9.70;;;;;;4982640;28;20490;-69
2024/02/02 09:13:11;;;;;;;4.10;2.77;;;8.50;9.50;;;;;;4994392;28;20407;-70
2024/02/02 09:15:37;;;;;;;3.50;2.33;;;8.60;8.40;;;;;;4993928;28;20404;-69
2024/02/02 09:18:03;;;;;;;4.77;2.93;;;8.70;8.00;;;;;;4994073;28;20772;-69
2024/02/02 09:20:50;;;;;;;3.43;2.60;;;8.50;7.00;;;;;;4993832;28;20223;-69
2024/02/02 09:23:16;;;;;;;3.90;2.83;;;8.40;7.30;;;;;;4992432;28;20185;-69
2024/02/02 09:25:43;;;;;;;4.80;3.53;;;8.40;7.20;;;;;;4993756;28;20514;-69
2024/02/02 09:28:41;;;;;;;3.53;2.20;;;8.40;8.00;;;;;;4993664;28;20428;-69
2024/02/02 09:31:11;;;;;;;4.70;3.20;;;8.40;6.40;;;;;;4981322;28;20479;-69
2024/02/02 09:33:50;;;;;;;4.50;2.40;;;8.40;6.90;;;;;;4993718;28;20945;-69
2024/02/02 09:36:17;;;;;;;5.13;2.87;;;8.60;6.40;;;;;;4993779;28;20442;-69
2024/02/02 09:39:01;;;;;;;4.03;2.33;;;8.70;5.10;;;;;;4993466;28;20576;-69
2024/02/02 09:41:45;;;;;;;3.03;1.83;;;8.70;6.80;;;;;;4994105;28;20660;-69
2024/02/02 09:44:37;;;;;;;3.87;2.77;;;8.80;5.20;;;;;;4994000;28;20415;-68
2024/02/02 09:47:42;;;;;;;3.90;2.60;;;9.00;4.80;;;;;;4993991;28;20607;-69
2024/02/02 09:50:29;;;;;;;2.90;1.90;;;9.00;4.10;;;;;;4933120;29;20560;-69
2024/02/02 09:53:04;;;;;;;2.87;2.23;;;8.90;3.30;;;;;;4989775;28;20431;-69
2024/02/02 09:55:49;;;;;;;5.03;3.17;;;8.80;3.70;;;;;;4994044;28;20418;-69
2024/02/02 09:58:27;;;;;;;4.17;2.80;;;8.80;5.20;;;;;;4993646;28;20977;-70
2024/02/02 10:01:19;;;;;;;3.80;2.27;;;8.90;2.90;;;;;;4993548;28;20565;-69
2024/02/02 10:04:10;;;;;;;3.57;2.47;;;9.00;2.10;;;;;;4993571;28;20392;-69
2024/02/02 10:06:53;;;;;;;3.47;2.80;;;9.00;3.30;;;;;;4991820;28;20419;-69
2024/02/02 10:09:44;;;;;;;4.73;2.80;;;9.00;2.90;;;;;;4993187;28;20530;-69
2024/02/02 10:12:16;;;;;;;3.07;2.43;;;9.00;2.30;;;;;;4994029;28;20928;-69
2024/02/02 10:15:03;;;;;;;3.10;2.13;;;9.20;2.40;;;;;;4993434;28;20517;-69
2024/02/02 10:18:00;;;;;;;4.40;2.70;;;9.20;2.30;;;;;;4993210;28;20950;-68
2024/02/02 10:20:43;;;;;;;3.23;2.00;;;9.10;1.70;;;;;;4992912;28;20467;-69
2024/02/02 10:23:54;;;;;;;4.00;2.27;;;9.20;2.00;;;;;;4992083;28;20411;-69
2024/02/02 10:26:56;;;;;;;5.20;2.63;;;9.20;2.50;;;;;;4965347;28;20458;-70
2024/02/02 10:29:22;;;;;;;3.10;1.87;;;9.50;2.10;;;;;;4992673;28;20442;-69
2024/02/02 10:32:09;;;;;;;7.60;2.23;;;9.60;1.00;;;;;;4992704;28;20433;-69
2024/02/02 10:35:01;;;;;;;3.80;2.17;;;9.70;1.00;;;;;;4992735;28;20188;-69
2024/02/02 10:37:36;;;;;;;3.00;2.23;;;9.60;1.00;;;;;;4992818;28;20412;-69
2024/02/02 10:40:08;;;;;;;3.37;2.70;;;9.60;1.00;;;;;;4992243;28;20470;-68
2024/02/02 10:42:51;;;;;;;4.10;2.70;;;9.60;1.00;;;;;;4992492;28;20416;-69
2024/02/02 10:45:40;;;;;;;3.10;2.40;;;9.30;1.00;;;;;;4992477;28;20419;-69
2024/02/02 10:48:35;;;;;;;4.40;2.70;;;9.20;2.40;;;;;;4992284;28;20412;-69
2024/02/02 10:51:42;;;;;;;4.20;2.47;;;9.10;2.90;;;;;;4992092;28;20430;-69
2024/02/02 10:54:22;;;;;;;5.23;2.77;;;9.20;2.80;;;;;;4992591;28;20416;-69
2024/02/02 10:57:12;;;;;;;3.73;2.13;;;9.30;1.30;;;;;;4992389;28;20408;-69
2024/02/02 10:59:52;;;;;;;4.73;2.60;;;9.30;1.00;;;;;;4992139;28;20474;-68
2024/02/02 11:02:51;;;;;;;5.53;2.83;;;9.40;1.10;;;;;;4992358;28;20478;-69
2024/02/02 11:05:21;;;;;;;3.10;2.40;;;9.50;1.10;;;;;;4992458;28;20443;-69
2024/02/02 11:08:01;;;;;;;4.87;2.90;;;9.90;1.00;;;;;;4991890;28;20420;-70
2024/02/02 11:10:59;;;;;;;3.43;2.60;;;10.10;1.00;;;;;;4992158;28;20483;-69
2024/02/02 11:13:36;;;;;;;6.37;2.63;;;10.10;1.00;;;;;;4993135;28;20796;-69
2024/02/02 11:16:01;;;;;;;3.47;1.73;;;10.00;1.00;;;;;;4992848;28;20533;-69
2024/02/02 11:18:36;;;;;;;4.70;2.50;;;9.80;1.00;;;;;;4993274;28;20420;-69
2024/02/02 11:21:42;;;;;;;4.77;2.40;;;9.80;1.00;;;;;;4991395;28;20200;-69
2024/02/02 11:24:14;;;;;;;2.97;1.90;;;9.60;1.00;;;;;;4993020;28;20839;-69
2024/02/02 11:26:43;;;;;;;7.20;2.10;;;9.50;1.00;;;;;;4990834;28;20578;-68
2024/02/02 11:29:37;;;;;;;4.17;2.33;;;9.60;1.00;;;;;;4992052;28;20513;-69
2024/02/02 11:32:39;;;;;;;2.80;1.63;;;9.70;1.00;;;;;;4992009;28;20810;-69
2024/02/02 11:35:28;;;;;;;2.80;1.60;;;10.00;1.00;;;;;;4991591;28;20518;-68
2024/02/02 11:38:27;;;;;;;2.87;2.00;;;9.90;1.00;;;;;;4992019;28;20411;-69
2024/02/02 11:40:55;;;;;;;3.73;2.80;;;9.90;1.00;;;;;;4991818;28;20440;-70
2024/02/02 11:43:21;;;;;;;3.50;2.07;;;10.00;1.00;;;;;;4992407;28;20411;-70
2024/02/02 11:45:50;;;;;;;2.93;2.10;;;10.10;1.00;;;;;;4993226;28;20436;-70
2024/02/02 11:48:27;;;;;;;3.70;2.43;;;10.40;1.00;;;;;;4992269;28;20495;-70
2024/02/02 11:50:52;;;;;;;3.43;2.20;;;10.60;1.00;;;;;;4993151;28;20935;-70
2024/02/02 11:53:23;;;;;;;4.87;2.50;;;10.70;1.00;;;;;;4992572;28;20435;-70
2024/02/02 11:55:54;;;;;;;3.67;2.03;;;10.70;1.00;;;;;;4990700;28;20667;-70
2024/02/02 11:58:20;;;;;;;4.30;2.07;;;10.80;1.00;;;;;;4991693;28;20407;-70
2024/02/02 12:01:12;;;;;;;2.60;1.90;;;11.00;1.00;;;;;;4991806;28;20494;-70
2024/02/02 12:04:08;;;;;;;3.67;2.43;;;11.30;1.00;;;;;;4992378;28;20444;-70
2024/02/02 12:06:47;;;;;;;4.13;1.60;;;11.60;1.00;;;;;;4992298;28;20404;-70
2024/02/02 12:09:31;;;;;;;3.67;1.90;;;11.70;1.00;;;;;;4992121;28;20431;-71
2024/02/02 12:11:58;;;;;;;3.47;2.20;;;11.70;1.00;;;;;;4992276;28;20420;-70
2024/02/02 12:14:32;;;;;;;2.87;2.27;;;11.50;1.00;;;;;;4992075;28;20878;-69
2024/02/02 12:17:00;;;;;;;2.50;1.30;;;11.20;1.00;;;;;;4992111;28;20450;-70
2024/02/02 12:19:26;;;;;;;2.50;1.70;;;11.30;1.00;;;;;;4991965;28;20477;-70
2024/02/02 12:21:52;;;;;;;2.47;1.60;;;11.10;1.00;;;;;;4992020;28;20486;-70
2024/02/02 12:24:18;;;;;;;4.43;2.27;;;11.20;1.00;;;;;;4991913;28;20504;-70
2024/02/02 12:26:47;;;;;;;2.50;1.80;;;11.10;1.00;;;;;;4990520;28;20416;-69
2024/02/02 12:29:14;;;;;;;3.80;1.93;;;11.00;1.00;;;;;;4991568;28;20181;-69
2024/02/02 12:31:40;;;;;;;4.30;2.17;;;11.00;1.00;;;;;;4991901;28;20470;-69
2024/02/02 12:34:06;;;;;;;3.33;1.97;;;11.00;1.00;;;;;;4991578;28;20907;-70
2024/02/02 12:36:32;;;;;;;3.60;2.30;;;11.20;1.00;;;;;;4991206;28;20550;-70
2024/02/02 12:39:01;;;;;;;3.40;1.60;;;11.20;1.00;;;;;;4991409;28;20467;-69
2024/02/02 12:41:26;;;;;;;3.60;2.00;;;11.40;1.00;;;;;;4991527;28;20197;-69
2024/02/02 12:43:52;;;;;;;2.60;1.43;;;11.60;1.00;;;;;;4991650;28;20423;-70
2024/02/02 12:46:17;;;;;;;3.53;2.60;;;11.90;1.00;;;;;;4997525;28;20179;-70
2024/02/02 12:48:43;;;;;;;6.20;1.63;;;11.90;1.00;;;;;;4997635;28;20195;-70
2024/02/02 12:51:09;;;;;;;4.17;1.93;;;11.80;1.00;;;;;;4997024;28;20209;-70
2024/02/02 12:53:35;;;;;;;3.20;1.63;;;11.80;1.00;;;;;;4998732;28;20189;-69
2024/02/02 12:56:01;;;;;;;3.20;2.30;;;11.70;1.00;;;;;;4998695;28;20170;-68
2024/02/02 12:58:26;;;;;;;2.30;1.53;;;11.80;1.00;;;;;;4999089;28;20408;-70
2024/02/02 13:00:52;;;;;;;2.87;1.33;;;12.00;1.00;;;;;;4997323;28;20997;-70
2024/02/02 13:03:18;;;;;;;3.00;2.00;;;11.80;1.00;;;;;;4994840;28;20183;-70
2024/02/02 13:05:44;;;;;;;6.23;2.40;;;12.00;1.00;;;;;;4994798;28;20179;-69
2024/02/02 13:08:10;;;;;;;3.43;2.40;;;11.90;1.00;;;;;;4994508;28;20181;-69